Terminal Aerodrome Forecast
Issued by NWS Hastings, NE

Home | Current Version | Previous Version | Text Only | Print | Product List | Glossary On
Versions: 1 2 3 4 5 6 7 8 9 10 11 12 13 14
762
FTUS45 KGID 100520
TAFEAR
TAF
KEAR 100520Z 1006/1106 23007KT P6SM BKN070
     FM101100 24006KT P6SM SCT050
     FM102100 32015KT P6SM FEW045
     FM110000 35010KT P6SM SKC
      AMD LTD TO CLD VIS AND WIND=

USA.gov is the U.S. government's official web portal to all federal, state and local government web resources and services.